sensor_id;sensor_type;location;lat;lon;timestamp;pressure;altitude;pressure_sealevel;temperature;humidity
33286;BME280;19656;50.096;20.014;2023-05-24T00:45:28;98622.34;;;19.35;72.08
33286;BME280;19656;50.096;20.014;2023-05-24T00:50:36;98620.30;;;19.27;72.21
33286;BME280;19656;50.096;20.014;2023-05-24T00:55:40;98622.08;;;19.19;72.31
33286;BME280;19656;50.096;20.014;2023-05-24T01:00:45;98620.25;;;19.10;72.50
33286;BME280;19656;50.096;20.014;2023-05-24T01:05:51;98626.63;;;19.03;72.68
33286;BME280;19656;50.096;20.014;2023-05-24T01:11:00;98629.36;;;19.01;72.93
33286;BME280;19656;50.096;20.014;2023-05-24T01:16:06;98628.71;;;19.00;72.96
33286;BME280;19656;50.096;20.014;2023-05-24T01:27:11;98627.52;;;18.89;73.21
33286;BME280;19656;50.096;20.014;2023-05-24T01:32:16;98638.83;;;18.87;73.31
33286;BME280;19656;50.096;20.014;2023-05-24T01:37:21;98640.62;;;18.91;73.40
33286;BME280;19656;50.096;20.014;2023-05-24T01:48:26;98647.56;;;18.88;73.18
33286;BME280;19656;50.096;20.014;2023-05-24T01:53:35;98646.36;;;18.82;73.23
33286;BME280;19656;50.096;20.014;2023-05-24T01:58:43;98645.41;;;18.74;73.46
33286;BME280;19656;50.096;20.014;2023-05-24T02:03:49;98649.13;;;18.75;73.68
33286;BME280;19656;50.096;20.014;2023-05-24T02:08:53;98640.52;;;18.78;73.69
33286;BME280;19656;50.096;20.014;2023-05-24T02:13:56;98642.05;;;18.81;73.63
33286;BME280;19656;50.096;20.014;2023-05-24T02:18:59;98644.33;;;18.81;73.21
33286;BME280;19656;50.096;20.014;2023-05-24T02:24:03;98645.73;;;18.76;73.31
33286;BME280;19656;50.096;20.014;2023-05-24T02:29:06;98646.93;;;18.70;73.47
33286;BME280;19656;50.096;20.014;2023-05-24T02:34:14;98646.95;;;18.64;73.72
33286;BME280;19656;50.096;20.014;2023-05-24T02:39:17;98645.88;;;18.64;73.71
33286;BME280;19656;50.096;20.014;2023-05-24T02:44:20;98643.36;;;18.65;73.81
33286;BME280;19656;50.096;20.014;2023-05-24T02:49:23;98647.94;;;18.65;73.91
33286;BME280;19656;50.096;20.014;2023-05-24T02:54:26;98650.25;;;18.63;73.96
33286;BME280;19656;50.096;20.014;2023-05-24T02:59:30;98654.37;;;18.56;74.07
33286;BME280;19656;50.096;20.014;2023-05-24T03:04:34;98651.01;;;18.52;74.24
33286;BME280;19656;50.096;20.014;2023-05-24T03:09:38;98652.37;;;18.55;74.42
33286;BME280;19656;50.096;20.014;2023-05-24T03:14:41;98653.05;;;18.59;74.41
33286;BME280;19656;50.096;20.014;2023-05-24T03:19:44;98655.03;;;18.62;74.34
33286;BME280;19656;50.096;20.014;2023-05-24T03:24:47;98653.74;;;18.64;74.26
33286;BME280;19656;50.096;20.014;2023-05-24T03:29:51;98657.45;;;18.61;74.22
33286;BME280;19656;50.096;20.014;2023-05-24T03:34:56;98662.02;;;18.64;74.42
33286;BME280;19656;50.096;20.014;2023-05-24T03:40:03;98662.43;;;18.71;74.21
33286;BME280;19656;50.096;20.014;2023-05-24T03:45:30;98671.89;;;18.77;73.87
33286;BME280;19656;50.096;20.014;2023-05-24T03:50:42;98674.88;;;18.80;73.66
33286;BME280;19656;50.096;20.014;2023-05-24T03:55:46;98677.70;;;18.78;73.35
33286;BME280;19656;50.096;20.014;2023-05-24T04:00:49;98678.46;;;18.78;73.13
33286;BME280;19656;50.096;20.014;2023-05-24T04:05:53;98689.98;;;18.78;73.04
33286;BME280;19656;50.096;20.014;2023-05-24T04:10:56;98700.61;;;18.81;72.94
33286;BME280;19656;50.096;20.014;2023-05-24T04:16:00;98704.66;;;18.82;72.73
33286;BME280;19656;50.096;20.014;2023-05-24T04:21:03;98710.22;;;18.78;72.11
33286;BME280;19656;50.096;20.014;2023-05-24T04:26:07;98714.60;;;18.74;71.85
33286;BME280;19656;50.096;20.014;2023-05-24T04:31:12;98728.45;;;18.66;71.63
33286;BME280;19656;50.096;20.014;2023-05-24T04:36:17;98735.39;;;18.60;71.49
33286;BME280;19656;50.096;20.014;2023-05-24T04:41:21;98741.30;;;18.58;71.65
33286;BME280;19656;50.096;20.014;2023-05-24T04:46:25;98743.67;;;18.60;71.31
33286;BME280;19656;50.096;20.014;2023-05-24T04:51:29;98750.45;;;18.57;71.19
33286;BME280;19656;50.096;20.014;2023-05-24T04:56:32;98755.67;;;18.50;71.05
33286;BME280;19656;50.096;20.014;2023-05-24T05:01:35;98763.42;;;18.44;70.86
33286;BME280;19656;50.096;20.014;2023-05-24T05:06:38;98769.22;;;18.38;71.03
33286;BME280;19656;50.096;20.014;2023-05-24T05:11:42;98774.45;;;18.39;71.16
33286;BME280;19656;50.096;20.014;2023-05-24T05:16:45;98781.33;;;18.37;71.22
33286;BME280;19656;50.096;20.014;2023-05-24T05:21:51;98790.66;;;18.34;71.25
33286;BME280;19656;50.096;20.014;2023-05-24T05:26:58;98800.63;;;18.29;71.35
33286;BME280;19656;50.096;20.014;2023-05-24T05:32:01;98804.33;;;18.23;71.61
33286;BME280;19656;50.096;20.014;2023-05-24T05:37:04;98806.16;;;18.18;71.67
33286;BME280;19656;50.096;20.014;2023-05-24T05:42:07;98810.11;;;18.20;71.71
33286;BME280;19656;50.096;20.014;2023-05-24T05:47:10;98815.66;;;18.28;71.96
33286;BME280;19656;50.096;20.014;2023-05-24T05:52:14;98821.30;;;18.38;71.66
33286;BME280;19656;50.096;20.014;2023-05-24T05:57:17;98826.39;;;18.39;71.60
33286;BME280;19656;50.096;20.014;2023-05-24T06:02:26;98829.63;;;18.39;71.59
33286;BME280;19656;50.096;20.014;2023-05-24T06:07:29;98835.46;;;18.40;71.39
33286;BME280;19656;50.096;20.014;2023-05-24T06:12:32;98838.11;;;18.44;71.47
33286;BME280;19656;50.096;20.014;2023-05-24T06:17:36;98840.02;;;18.52;71.43
33286;BME280;19656;50.096;20.014;2023-05-24T06:22:40;98838.21;;;18.63;71.33
33286;BME280;19656;50.096;20.014;2023-05-24T06:27:44;98851.91;;;18.71;71.16
33286;BME280;19656;50.096;20.014;2023-05-24T06:32:47;98858.45;;;18.74;71.31
33286;BME280;19656;50.096;20.014;2023-05-24T06:37:50;98864.44;;;18.82;71.33
33286;BME280;19656;50.096;20.014;2023-05-24T06:42:54;98870.53;;;18.98;70.40
33286;BME280;19656;50.096;20.014;2023-05-24T06:47:57;98873.40;;;19.06;70.00
33286;BME280;19656;50.096;20.014;2023-05-24T06:53:01;98880.87;;;19.08;69.25
33286;BME280;19656;50.096;20.014;2023-05-24T06:58:05;98886.77;;;19.12;68.96
33286;BME280;19656;50.096;20.014;2023-05-24T07:03:08;98888.93;;;19.10;68.74
33286;BME280;19656;50.096;20.014;2023-05-24T07:08:12;98894.48;;;19.00;68.46
33286;BME280;19656;50.096;20.014;2023-05-24T07:13:15;98898.78;;;18.98;68.53
33286;BME280;19656;50.096;20.014;2023-05-24T07:18:18;98904.85;;;19.00;68.42
33286;BME280;19656;50.096;20.014;2023-05-24T07:23:21;98904.33;;;19.04;68.34
33286;BME280;19656;50.096;20.014;2023-05-24T07:28:24;98911.95;;;19.03;68.28
33286;BME280;19656;50.096;20.014;2023-05-24T07:33:28;98917.77;;;18.97;68.05
33286;BME280;19656;50.096;20.014;2023-05-24T07:38:32;98926.17;;;18.92;68.25
33286;BME280;19656;50.096;20.014;2023-05-24T07:43:36;98927.60;;;18.85;68.33
33286;BME280;19656;50.096;20.014;2023-05-24T07:48:39;98929.45;;;18.81;68.74
33286;BME280;19656;50.096;20.014;2023-05-24T07:53:43;98936.16;;;18.86;68.81
33286;BME280;19656;50.096;20.014;2023-05-24T07:58:46;98943.17;;;18.93;68.64
33286;BME280;19656;50.096;20.014;2023-05-24T08:06:26;98949.74;;;18.90;68.63
33286;BME280;19656;50.096;20.014;2023-05-24T08:11:29;98954.02;;;18.83;68.67
33286;BME280;19656;50.096;20.014;2023-05-24T08:16:33;98959.62;;;18.83;68.96
33286;BME280;19656;50.096;20.014;2023-05-24T08:21:36;98967.73;;;18.75;68.65
33286;BME280;19656;50.096;20.014;2023-05-24T08:26:39;98973.63;;;18.55;69.01
33286;BME280;19656;50.096;20.014;2023-05-24T08:31:43;98980.04;;;18.37;69.62
33286;BME280;19656;50.096;20.014;2023-05-24T08:36:47;98990.89;;;18.21;70.18
33286;BME280;19656;50.096;20.014;2023-05-24T08:41:53;98995.59;;;18.07;70.92
33286;BME280;19656;50.096;20.014;2023-05-24T08:47:14;99004.46;;;18.00;71.09
33286;BME280;19656;50.096;20.014;2023-05-24T08:52:18;99005.13;;;17.88;71.26
33286;BME280;19656;50.096;20.014;2023-05-24T08:57:25;99013.67;;;17.70;71.70
33286;BME280;19656;50.096;20.014;2023-05-24T09:02:28;99020.48;;;17.63;72.16
33286;BME280;19656;50.096;20.014;2023-05-24T09:07:32;99027.41;;;17.62;72.46
33286;BME280;19656;50.096;20.014;2023-05-24T09:12:37;99036.09;;;17.63;72.72
33286;BME280;19656;50.096;20.014;2023-05-24T09:17:41;99035.95;;;17.64;72.90
33286;BME280;19656;50.096;20.014;2023-05-24T09:22:49;99040.09;;;17.66;72.88
33286;BME280;19656;50.096;20.014;2023-05-24T09:33:30;99056.30;;;17.67;72.83
33286;BME280;19656;50.096;20.014;2023-05-24T09:38:34;99065.45;;;17.73;72.80
33286;BME280;19656;50.096;20.014;2023-05-24T09:43:48;99072.10;;;17.78;72.22
33286;BME280;19656;50.096;20.014;2023-05-24T09:48:58;99073.64;;;17.70;71.81
33286;BME280;19656;50.096;20.014;2023-05-24T09:54:02;99083.34;;;17.62;71.88
33286;BME280;19656;50.096;20.014;2023-05-24T09:59:06;99084.60;;;17.56;71.70
33286;BME280;19656;50.096;20.014;2023-05-24T10:04:10;99086.66;;;17.49;71.90
33286;BME280;19656;50.096;20.014;2023-05-24T10:09:14;99091.40;;;17.48;72.56
33286;BME280;19656;50.096;20.014;2023-05-24T10:14:18;99100.05;;;17.48;72.48
33286;BME280;19656;50.096;20.014;2023-05-24T10:19:21;99109.90;;;17.46;72.42
33286;BME280;19656;50.096;20.014;2023-05-24T10:24:29;99114.16;;;17.48;72.33
33286;BME280;19656;50.096;20.014;2023-05-24T10:33:30;99118.38;;;17.48;72.32
33286;BME280;19656;50.096;20.014;2023-05-24T10:38:37;99122.14;;;17.42;71.99
33286;BME280;19656;50.096;20.014;2023-05-24T10:43:46;99123.88;;;17.46;71.76
33286;BME280;19656;50.096;20.014;2023-05-24T10:49:13;99122.30;;;17.44;71.58
33286;BME280;19656;50.096;20.014;2023-05-24T10:54:18;99130.77;;;17.37;71.57
33286;BME280;19656;50.096;20.014;2023-05-24T11:04:44;99137.07;;;17.25;71.83
33286;BME280;19656;50.096;20.014;2023-05-24T11:09:48;99146.45;;;17.20;71.41
33286;BME280;19656;50.096;20.014;2023-05-24T11:15:00;99150.45;;;17.11;71.13
33286;BME280;19656;50.096;20.014;2023-05-24T11:20:05;99158.52;;;17.03;71.35
33286;BME280;19656;50.096;20.014;2023-05-24T11:25:11;99159.02;;;16.95;71.40
33286;BME280;19656;50.096;20.014;2023-05-24T11:30:14;99159.90;;;16.95;71.62
33286;BME280;19656;50.096;20.014;2023-05-24T11:35:18;99159.28;;;17.00;71.76
33286;BME280;19656;50.096;20.014;2023-05-24T11:40:22;99165.88;;;17.07;71.47
33286;BME280;19656;50.096;20.014;2023-05-24T11:45:27;99166.64;;;17.05;71.13
33286;BME280;19656;50.096;20.014;2023-05-24T11:50:31;99172.05;;;17.06;71.33
33286;BME280;19656;50.096;20.014;2023-05-24T11:55:52;99174.25;;;17.06;70.87
33286;BME280;19656;50.096;20.014;2023-05-24T12:00:56;99176.50;;;17.05;70.37
33286;BME280;19656;50.096;20.014;2023-05-24T12:05:59;99179.21;;;17.06;70.30
33286;BME280;19656;50.096;20.014;2023-05-24T12:11:02;99178.88;;;17.08;69.90
33286;BME280;19656;50.096;20.014;2023-05-24T12:16:10;99173.30;;;17.07;69.38
33286;BME280;19656;50.096;20.014;2023-05-24T12:21:14;99177.96;;;17.11;69.47
33286;BME280;19656;50.096;20.014;2023-05-24T12:26:18;99178.92;;;17.10;69.33
33286;BME280;19656;50.096;20.014;2023-05-24T12:33:29;99175.75;;;17.15;69.10
33286;BME280;19656;50.096;20.014;2023-05-24T12:38:32;99174.92;;;17.24;68.82
33286;BME280;19656;50.096;20.014;2023-05-24T12:43:35;99165.80;;;17.29;68.54
33286;BME280;19656;50.096;20.014;2023-05-24T12:48:38;99166.59;;;17.36;68.48
33286;BME280;19656;50.096;20.014;2023-05-24T12:53:42;99163.23;;;17.35;68.07
33286;BME280;19656;50.096;20.014;2023-05-24T12:58:45;99173.25;;;17.32;67.78
33286;BME280;19656;50.096;20.014;2023-05-24T13:03:49;99174.14;;;17.30;67.49
33286;BME280;19656;50.096;20.014;2023-05-24T13:08:52;99178.11;;;17.27;67.49
33286;BME280;19656;50.096;20.014;2023-05-24T13:13:56;99180.19;;;17.26;67.15
33286;BME280;19656;50.096;20.014;2023-05-24T13:19:01;99177.46;;;17.12;67.00
33286;BME280;19656;50.096;20.014;2023-05-24T13:24:05;99168.70;;;17.10;67.22
33286;BME280;19656;50.096;20.014;2023-05-24T13:29:09;99169.91;;;17.10;67.60
33286;BME280;19656;50.096;20.014;2023-05-24T13:34:15;99170.19;;;17.17;67.31
33286;BME280;19656;50.096;20.014;2023-05-24T13:39:21;99166.90;;;17.28;67.43
33286;BME280;19656;50.096;20.014;2023-05-24T13:44:24;99176.50;;;17.36;66.63
33286;BME280;19656;50.096;20.014;2023-05-24T13:49:27;99174.80;;;17.35;66.37
33286;BME280;19656;50.096;20.014;2023-05-24T13:54:31;99174.40;;;17.35;66.18
33286;BME280;19656;50.096;20.014;2023-05-24T13:59:35;99172.16;;;17.34;65.91
33286;BME280;19656;50.096;20.014;2023-05-24T14:04:38;99174.49;;;17.30;65.66
33286;BME280;19656;50.096;20.014;2023-05-24T14:09:41;99177.03;;;17.23;65.65
33286;BME280;19656;50.096;20.014;2023-05-24T14:14:45;99180.29;;;17.27;65.87
33286;BME280;19656;50.096;20.014;2023-05-24T14:19:58;99181.42;;;17.35;65.86
33286;BME280;19656;50.096;20.014;2023-05-24T14:25:02;99175.95;;;17.38;65.40
33286;BME280;19656;50.096;20.014;2023-05-24T14:30:06;99180.75;;;17.38;65.28
33286;BME280;19656;50.096;20.014;2023-05-24T14:35:10;99170.55;;;17.38;65.26
33286;BME280;19656;50.096;20.014;2023-05-24T14:40:13;99172.98;;;17.35;65.24
33286;BME280;19656;50.096;20.014;2023-05-24T14:45:20;99174.28;;;17.34;65.37
33286;BME280;19656;50.096;20.014;2023-05-24T14:50:23;99176.82;;;17.36;65.13
33286;BME280;19656;50.096;20.014;2023-05-24T14:55:26;99173.68;;;17.39;65.17
33286;BME280;19656;50.096;20.014;2023-05-24T15:00:29;99174.55;;;17.43;64.91
33286;BME280;19656;50.096;20.014;2023-05-24T15:05:33;99184.25;;;17.45;64.57
33286;BME280;19656;50.096;20.014;2023-05-24T15:10:37;99183.15;;;17.47;64.46
33286;BME280;19656;50.096;20.014;2023-05-24T15:15:43;99194.13;;;17.45;64.60
33286;BME280;19656;50.096;20.014;2023-05-24T15:20:46;99190.06;;;17.40;64.65
33286;BME280;19656;50.096;20.014;2023-05-24T15:25:50;99187.67;;;17.39;64.69
33286;BME280;19656;50.096;20.014;2023-05-24T15:36:31;99189.43;;;17.41;64.64
33286;BME280;19656;50.096;20.014;2023-05-24T15:41:34;99192.59;;;17.36;64.63
33286;BME280;19656;50.096;20.014;2023-05-24T15:46:39;99195.44;;;17.44;64.43
33286;BME280;19656;50.096;20.014;2023-05-24T15:51:46;99199.84;;;17.51;64.27
33286;BME280;19656;50.096;20.014;2023-05-24T15:56:58;99199.27;;;17.54;63.93
33286;BME280;19656;50.096;20.014;2023-05-24T16:02:06;99201.86;;;17.49;64.05
33286;BME280;19656;50.096;20.014;2023-05-24T16:07:10;99208.41;;;17.46;64.10
33286;BME280;19656;50.096;20.014;2023-05-24T16:12:13;99216.11;;;17.44;64.11
33286;BME280;19656;50.096;20.014;2023-05-24T16:17:16;99215.45;;;17.43;64.15
33286;BME280;19656;50.096;20.014;2023-05-24T16:22:19;99217.86;;;17.42;63.93
33286;BME280;19656;50.096;20.014;2023-05-24T16:27:23;99228.01;;;17.39;63.91
33286;BME280;19656;50.096;20.014;2023-05-24T16:38:06;99236.85;;;17.42;63.88
33286;BME280;19656;50.096;20.014;2023-05-24T16:43:09;99242.23;;;17.40;63.78
33286;BME280;19656;50.096;20.014;2023-05-24T16:48:13;99246.22;;;17.40;63.79
33286;BME280;19656;50.096;20.014;2023-05-24T16:53:16;99255.58;;;17.38;63.88
33286;BME280;19656;50.096;20.014;2023-05-24T16:58:20;99256.50;;;17.36;64.06
33286;BME280;19656;50.096;20.014;2023-05-24T17:03:25;99263.03;;;17.35;64.01
33286;BME280;19656;50.096;20.014;2023-05-24T17:08:33;99265.34;;;17.35;63.76
33286;BME280;19656;50.096;20.014;2023-05-24T17:13:37;99269.36;;;17.32;63.83
33286;BME280;19656;50.096;20.014;2023-05-24T17:18:40;99268.95;;;17.30;64.02
33286;BME280;19656;50.096;20.014;2023-05-24T17:23:44;99275.83;;;17.23;64.25
33286;BME280;19656;50.096;20.014;2023-05-24T17:28:47;99275.99;;;17.23;64.55
33286;BME280;19656;50.096;20.014;2023-05-24T17:33:50;99275.33;;;17.25;64.95
33286;BME280;19656;50.096;20.014;2023-05-24T17:38:53;99281.59;;;17.27;65.32
33286;BME280;19656;50.096;20.014;2023-05-24T17:43:57;99284.29;;;17.27;64.71
33286;BME280;19656;50.096;20.014;2023-05-24T17:49:01;99286.90;;;17.23;64.68
33286;BME280;19656;50.096;20.014;2023-05-24T17:54:04;99290.67;;;17.22;64.44
33286;BME280;19656;50.096;20.014;2023-05-24T17:59:08;99295.45;;;17.20;64.33
33286;BME280;19656;50.096;20.014;2023-05-24T18:04:11;99300.88;;;17.15;64.48
33286;BME280;19656;50.096;20.014;2023-05-24T18:09:15;99305.36;;;17.17;64.53
33286;BME280;19656;50.096;20.014;2023-05-24T18:33:34;99339.85;;;17.17;64.57
33286;BME280;19656;50.096;20.014;2023-05-24T18:38:38;99348.31;;;17.14;64.49
33286;BME280;19656;50.096;20.014;2023-05-24T18:43:41;99357.70;;;17.09;64.69
33286;BME280;19656;50.096;20.014;2023-05-24T18:48:45;99364.94;;;17.04;64.96
33286;BME280;19656;50.096;20.014;2023-05-24T18:53:49;99367.84;;;16.99;65.10
33286;BME280;19656;50.096;20.014;2023-05-24T18:58:53;99376.54;;;16.94;65.10
33286;BME280;19656;50.096;20.014;2023-05-24T19:04:02;99385.58;;;16.89;65.36
33286;BME280;19656;50.096;20.014;2023-05-24T19:09:05;99396.86;;;16.87;65.19
33286;BME280;19656;50.096;20.014;2023-05-24T19:14:11;99403.39;;;16.86;65.26
33286;BME280;19656;50.096;20.014;2023-05-24T19:19:15;99407.15;;;16.88;65.48
33286;BME280;19656;50.096;20.014;2023-05-24T19:24:18;99409.80;;;16.93;65.46
33286;BME280;19656;50.096;20.014;2023-05-24T19:35:00;99409.34;;;16.90;64.88
33286;BME280;19656;50.096;20.014;2023-05-24T19:40:05;99396.40;;;16.77;64.23
33286;BME280;19656;50.096;20.014;2023-05-24T19:45:09;99394.04;;;16.70;63.96
33286;BME280;19656;50.096;20.014;2023-05-24T19:50:12;99395.96;;;16.67;63.84
33286;BME280;19656;50.096;20.014;2023-05-24T19:55:15;99397.35;;;16.63;64.02
33286;BME280;19656;50.096;20.014;2023-05-24T20:00:18;99404.98;;;16.60;63.97
33286;BME280;19656;50.096;20.014;2023-05-24T20:05:21;99398.22;;;16.52;64.00
33286;BME280;19656;50.096;20.014;2023-05-24T20:10:25;99388.05;;;16.43;64.28
33286;BME280;19656;50.096;20.014;2023-05-24T20:15:30;99379.74;;;16.39;64.68
33286;BME280;19656;50.096;20.014;2023-05-24T20:20:33;99379.42;;;16.45;64.77
33286;BME280;19656;50.096;20.014;2023-05-24T20:25:37;99384.50;;;16.49;64.39
33286;BME280;19656;50.096;20.014;2023-05-24T20:30:40;99384.02;;;16.48;64.27
33286;BME280;19656;50.096;20.014;2023-05-24T20:35:47;99377.75;;;16.50;64.36
33286;BME280;19656;50.096;20.014;2023-05-24T20:40:51;99389.66;;;16.49;64.11
33286;BME280;19656;50.096;20.014;2023-05-24T22:45:31;99456.53;;;15.94;64.39
33286;BME280;19656;50.096;20.014;2023-05-24T22:50:47;99465.90;;;15.89;64.38
33286;BME280;19656;50.096;20.014;2023-05-24T22:55:50;99470.31;;;15.85;64.49
33286;BME280;19656;50.096;20.014;2023-05-24T23:00:53;99469.61;;;15.80;64.84
33286;BME280;19656;50.096;20.014;2023-05-24T23:05:57;99473.12;;;15.76;64.82
33286;BME280;19656;50.096;20.014;2023-05-24T23:11:06;99474.29;;;15.77;64.90
33286;BME280;19656;50.096;20.014;2023-05-24T23:34:26;99479.16;;;15.81;65.18
33286;BME280;19656;50.096;20.014;2023-05-24T23:39:29;99477.04;;;15.79;65.19
33286;BME280;19656;50.096;20.014;2023-05-24T23:44:32;99478.85;;;15.78;65.15
33286;BME280;19656;50.096;20.014;2023-05-24T23:49:36;99478.25;;;15.77;65.26
33286;BME280;19656;50.096;20.014;2023-05-24T23:54:39;99483.07;;;15.77;65.49
33286;BME280;19656;50.096;20.014;2023-05-24T23:59:42;99470.55;;;15.75;65.68
